Time;durP1;ratioP1;P1;durP2;ratioP2;P2;SDS_P1;SDS_P2;PMS_P1;PMS_P2;Temp;Humidity;BMP_temperature;BMP_pressure;BME280_temperature;BME280_humidity;BME280_pressure;Samples;Min_cycle;Max_cycle;Signal;HPM_P1;HPM_P2
2022/06/28 00:02:15;;;;;;;4.47;0.82;;;11.70;99.90;;;;;;5052876;28;20447;-85
2022/06/28 00:04:42;;;;;;;4.38;0.90;;;11.90;99.90;;;;;;5052146;28;20376;-84
2022/06/28 00:07:10;;;;;;;8.15;1.10;;;12.00;99.90;;;;;;5052256;28;20448;-86
2022/06/28 00:09:37;;;;;;;10.88;1.20;;;12.10;99.90;;;;;;5050839;28;20380;-83
2022/06/28 00:12:04;;;;;;;6.78;1.40;;;12.20;99.90;;;;;;5052048;28;20473;-86
2022/06/28 00:17:17;;;;;;;5.18;1.15;;;12.40;99.20;;;;;;5052575;28;20463;-86
2022/06/28 00:19:44;;;;;;;7.07;0.95;;;12.30;99.00;;;;;;5052466;28;20386;-86
2022/06/28 00:22:11;;;;;;;4.30;1.00;;;12.40;98.80;;;;;;5052157;28;20755;-85
2022/06/28 00:24:39;;;;;;;6.05;1.15;;;12.40;98.90;;;;;;5052561;28;20863;-86
2022/06/28 00:27:06;;;;;;;4.35;0.80;;;12.50;99.20;;;;;;5052428;28;20380;-84
2022/06/28 00:29:33;;;;;;;8.37;1.10;;;12.50;98.60;;;;;;5051928;28;20428;-83
2022/06/28 00:32:00;;;;;;;4.13;1.10;;;12.50;98.70;;;;;;5052259;28;20449;-84
2022/06/28 00:34:27;;;;;;;3.28;1.00;;;12.70;98.70;;;;;;5052511;28;20724;-83
2022/06/28 00:36:55;;;;;;;3.77;1.00;;;12.70;98.30;;;;;;5052056;28;20411;-84
2022/06/28 00:39:22;;;;;;;5.65;1.15;;;12.70;98.40;;;;;;5051561;28;20525;-89
2022/06/28 00:41:49;;;;;;;5.35;0.93;;;12.70;98.70;;;;;;5051832;28;20384;-85
2022/06/28 00:44:17;;;;;;;4.20;0.80;;;12.80;98.60;;;;;;5051719;28;20375;-83
2022/06/28 00:46:44;;;;;;;4.38;0.90;;;12.90;98.30;;;;;;5050422;28;20744;-84
2022/06/28 00:49:13;;;;;;;3.03;0.90;;;12.90;98.80;;;;;;5050313;28;20400;-82
2022/06/28 00:51:40;;;;;;;5.95;0.90;;;13.00;98.40;;;;;;5051672;28;20396;-85
2022/06/28 00:54:08;;;;;;;8.85;1.23;;;13.10;98.10;;;;;;5051890;28;20386;-85
2022/06/28 00:56:35;;;;;;;7.32;1.35;;;12.80;98.60;;;;;;5052069;28;20368;-83
2022/06/28 00:59:02;;;;;;;3.97;0.95;;;13.30;98.90;;;;;;5052163;28;20716;-85
2022/06/28 01:01:30;;;;;;;4.18;1.00;;;13.40;97.90;;;;;;5051742;28;20437;-84
2022/06/28 01:03:58;;;;;;;3.85;1.10;;;13.40;98.30;;;;;;5051945;28;20375;-84
2022/06/28 01:06:25;;;;;;;3.33;0.90;;;13.50;98.70;;;;;;5051768;28;20864;-86
2022/06/28 01:08:52;;;;;;;6.00;1.00;;;13.60;98.40;;;;;;5051660;28;20775;-87
2022/06/28 01:11:19;;;;;;;8.48;1.20;;;13.70;98.00;;;;;;5051392;28;20431;-86
2022/06/28 01:14:08;;;;;;;8.45;1.30;;;13.80;97.50;;;;;;5051575;28;20368;-83
2022/06/28 01:16:37;;;;;;;4.10;0.93;;;13.90;98.00;;;;;;5051627;28;20809;-85
2022/06/28 01:19:05;;;;;;;7.18;1.02;;;14.00;98.50;;;;;;5050337;28;20479;-83
2022/06/28 01:21:36;;;;;;;4.13;0.90;;;14.10;97.70;;;;;;5051938;28;20373;-87
2022/06/28 01:24:04;;;;;;;4.80;0.93;;;14.10;98.20;;;;;;5051808;28;20768;-83
2022/06/28 01:26:32;;;;;;;4.60;1.05;;;14.20;98.00;;;;;;5050341;28;20372;-84
2022/06/28 01:29:00;;;;;;;6.00;0.98;;;14.30;98.40;;;;;;5051489;28;20397;-84
2022/06/28 01:31:28;;;;;;;6.47;1.02;;;14.40;98.30;;;;;;5051661;28;20392;-83
2022/06/28 01:33:56;;;;;;;6.25;1.15;;;14.50;98.60;;;;;;5051331;28;20375;-82
2022/06/28 01:36:23;;;;;;;5.47;1.00;;;14.70;97.80;;;;;;5051303;28;20792;-84
2022/06/28 01:38:51;;;;;;;11.98;1.30;;;14.80;97.00;;;;;;5050903;28;20510;-83
2022/06/28 01:41:33;;;;;;;4.65;0.90;;;14.70;97.30;;;;;;5051351;28;20382;-84
2022/06/28 01:44:05;;;;;;;5.88;1.00;;;14.70;97.80;;;;;;5051650;28;20419;-84
2022/06/28 01:46:35;;;;;;;4.83;1.03;;;15.00;98.10;;;;;;5051495;28;20421;-84
2022/06/28 01:49:03;;;;;;;7.57;1.15;;;15.20;98.10;;;;;;5051297;28;20367;-83
2022/06/28 01:51:31;;;;;;;4.47;0.90;;;15.30;96.30;;;;;;5053563;28;20392;-83
2022/06/28 01:53:58;;;;;;;6.37;1.00;;;15.40;95.70;;;;;;5054783;28;20927;-84
2022/06/28 01:56:25;;;;;;;5.15;0.93;;;15.30;95.70;;;;;;5054869;28;20830;-83
2022/06/28 01:58:54;;;;;;;4.95;1.10;;;15.10;96.80;;;;;;5054801;28;20856;-85
2022/06/28 02:01:21;;;;;;;5.50;1.00;;;15.20;96.40;;;;;;5054737;28;20383;-83
2022/06/28 02:03:51;;;;;;;6.28;1.27;;;15.20;96.50;;;;;;5054782;28;20381;-85
2022/06/28 02:06:19;;;;;;;5.28;1.23;;;15.20;96.80;;;;;;5054802;28;20364;-84
2022/06/28 02:08:46;;;;;;;7.23;1.00;;;15.10;96.70;;;;;;5054583;28;20381;-85
2022/06/28 02:11:13;;;;;;;3.90;1.00;;;15.20;96.70;;;;;;5054491;28;20872;-86
2022/06/28 02:13:40;;;;;;;2.80;0.68;;;15.20;96.70;;;;;;5054868;28;20380;-84
2022/06/28 02:16:07;;;;;;;4.00;1.00;;;15.30;96.10;;;;;;5054514;28;20920;-83
2022/06/28 02:18:34;;;;;;;3.40;1.10;;;15.40;95.90;;;;;;5054814;28;20810;-83
2022/06/28 02:21:02;;;;;;;6.10;1.10;;;15.70;96.30;;;;;;5055754;28;20368;-83
2022/06/28 02:23:29;;;;;;;4.18;0.90;;;15.90;95.60;;;;;;5054184;28;20376;-84
2022/06/28 02:25:56;;;;;;;8.18;1.20;;;16.00;95.20;;;;;;5054282;28;20372;-84
2022/06/28 02:28:23;;;;;;;5.40;0.90;;;16.10;94.20;;;;;;5054224;28;20378;-83
2022/06/28 02:30:50;;;;;;;4.10;1.20;;;16.10;94.50;;;;;;5054045;28;20380;-82
2022/06/28 02:33:17;;;;;;;3.90;0.90;;;16.20;94.10;;;;;;5053306;28;20388;-82
2022/06/28 02:41:15;;;;;;;5.60;0.90;;;16.20;93.90;;;;;;5054183;28;20492;-83
2022/06/28 02:43:42;;;;;;;3.20;0.90;;;16.20;93.40;;;;;;5054031;28;20857;-83
2022/06/28 02:46:09;;;;;;;3.88;0.95;;;16.00;93.40;;;;;;5054615;28;20844;-84
2022/06/28 02:48:36;;;;;;;6.45;1.00;;;15.90;94.10;;;;;;5054437;28;20517;-82
2022/06/28 02:51:03;;;;;;;4.18;0.85;;;15.80;93.80;;;;;;5054111;28;20383;-85
2022/06/28 02:53:30;;;;;;;6.15;1.20;;;15.70;93.90;;;;;;5053957;28;20384;-85
2022/06/28 02:55:58;;;;;;;7.38;1.15;;;15.90;95.20;;;;;;5053881;28;20372;-82
2022/06/28 02:58:25;;;;;;;5.90;0.90;;;16.10;93.90;;;;;;5054531;28;20866;-85
2022/06/28 03:00:52;;;;;;;9.70;1.20;;;16.20;93.40;;;;;;5053545;28;20376;-85
2022/06/28 03:03:19;;;;;;;7.60;1.10;;;16.20;93.00;;;;;;5053895;28;20386;-87
2022/06/28 03:05:46;;;;;;;7.13;1.20;;;16.20;93.00;;;;;;5053727;28;20379;-84
2022/06/28 03:08:14;;;;;;;4.20;0.80;;;16.20;92.70;;;;;;5053964;28;20787;-85
2022/06/28 03:10:41;;;;;;;5.55;1.00;;;16.20;92.70;;;;;;5053577;28;20367;-82
2022/06/28 03:13:08;;;;;;;6.07;1.00;;;16.20;92.60;;;;;;5052017;28;20491;-85
2022/06/28 03:15:36;;;;;;;6.82;1.10;;;16.20;92.50;;;;;;5053446;28;20376;-86
2022/06/28 03:18:03;;;;;;;3.90;0.80;;;16.10;92.40;;;;;;5053391;28;20383;-84
2022/06/28 03:20:30;;;;;;;5.95;0.80;;;15.90;92.60;;;;;;5053503;28;20371;-82
2022/06/28 03:22:58;;;;;;;8.60;1.17;;;15.70;93.60;;;;;;5053329;28;20852;-87
2022/06/28 03:25:25;;;;;;;5.03;1.13;;;15.50;94.50;;;;;;5053676;28;20403;-83
2022/06/28 03:27:52;;;;;;;7.18;1.15;;;15.40;94.90;;;;;;5053288;28;20478;-84
2022/06/28 03:30:19;;;;;;;4.80;1.10;;;15.20;95.20;;;;;;5053255;28;20504;-85
2022/06/28 03:32:46;;;;;;;3.20;0.80;;;15.20;95.50;;;;;;5053226;28;20400;-82
2022/06/28 03:35:13;;;;;;;5.30;1.02;;;15.00;95.80;;;;;;5053139;28;20368;-81
2022/06/28 03:37:41;;;;;;;7.38;1.20;;;15.00;96.20;;;;;;5053087;28;20386;-86
2022/06/28 03:40:09;;;;;;;5.53;1.00;;;15.00;96.20;;;;;;5053088;28;20372;-85
2022/06/28 03:42:36;;;;;;;9.48;1.30;;;14.90;96.40;;;;;;5053572;28;20382;-85
2022/06/28 03:45:04;;;;;;;4.70;1.10;;;14.90;97.10;;;;;;5054009;28;20382;-83
2022/06/28 03:47:31;;;;;;;7.70;1.20;;;14.90;97.20;;;;;;5053160;28;20376;-85
2022/06/28 03:49:58;;;;;;;5.45;1.17;;;14.90;97.30;;;;;;5053388;28;20463;-83
2022/06/28 03:52:31;;;;;;;7.18;0.93;;;14.80;97.50;;;;;;5053055;28;20399;-84
2022/06/28 03:54:59;;;;;;;5.25;1.10;;;14.80;97.70;;;;;;5052765;28;20464;-82
2022/06/28 03:57:28;;;;;;;5.33;1.07;;;14.80;97.90;;;;;;5053109;28;20387;-83
2022/06/28 03:59:56;;;;;;;7.10;0.90;;;15.00;98.60;;;;;;5053040;28;20784;-83
2022/06/28 04:02:23;;;;;;;6.68;1.13;;;15.10;98.80;;;;;;5052454;28;20902;-83
2022/06/28 04:04:51;;;;;;;6.25;1.15;;;15.00;99.20;;;;;;5052483;28;20456;-84
2022/06/28 04:07:18;;;;;;;6.40;1.30;;;14.90;99.60;;;;;;5052594;28;20388;-85
2022/06/28 04:09:45;;;;;;;6.20;1.33;;;14.80;99.90;;;;;;5052608;28;20493;-85
2022/06/28 04:12:12;;;;;;;9.33;1.40;;;14.80;99.90;;;;;;5052347;28;20414;-84
2022/06/28 04:14:40;;;;;;;8.20;1.20;;;14.80;99.90;;;;;;5052113;28;20379;-83
2022/06/28 04:17:07;;;;;;;5.80;0.90;;;14.90;99.90;;;;;;5052703;28;20733;-83
2022/06/28 04:19:34;;;;;;;4.97;1.02;;;15.00;99.90;;;;;;5052429;28;20367;-83
2022/06/28 04:22:01;;;;;;;2.90;0.90;;;15.20;99.90;;;;;;5051002;28;20780;-84
2022/06/28 04:24:28;;;;;;;7.05;1.02;;;15.20;99.90;;;;;;5052296;28;20377;-84
2022/06/28 04:26:56;;;;;;;4.00;1.02;;;15.30;99.90;;;;;;5052209;28;20455;-84
2022/06/28 04:29:23;;;;;;;4.07;1.00;;;15.30;99.90;;;;;;5051962;28;20388;-83
2022/06/28 04:31:50;;;;;;;7.45;0.90;;;15.40;99.90;;;;;;5052131;28;20486;-84
2022/06/28 04:34:22;;;;;;;5.22;1.00;;;15.50;99.90;;;;;;5051357;28;20442;-84
2022/06/28 04:36:49;;;;;;;8.60;1.40;;;15.60;99.70;;;;;;5052210;28;20371;-85
2022/06/28 04:39:16;;;;;;;6.75;1.40;;;15.70;99.60;;;;;;5052211;28;20830;-83
2022/06/28 04:41:43;;;;;;;6.60;1.27;;;15.70;99.70;;;;;;5052165;28;20418;-82
2022/06/28 04:44:10;;;;;;;5.07;1.10;;;15.80;99.50;;;;;;5053648;28;20375;-82
2022/06/28 04:46:38;;;;;;;5.67;1.17;;;15.70;99.70;;;;;;5052336;28;20376;-82
2022/06/28 04:49:05;;;;;;;5.00;1.20;;;15.60;99.80;;;;;;5052228;28;20507;-83
2022/06/28 04:51:32;;;;;;;5.65;1.00;;;15.40;99.90;;;;;;5051906;28;20395;-83
2022/06/28 04:54:00;;;;;;;7.20;1.20;;;15.30;99.90;;;;;;5051973;28;20894;-84
2022/06/28 04:56:27;;;;;;;5.35;1.13;;;15.10;99.90;;;;;;5052163;28;20454;-84
2022/06/28 04:58:54;;;;;;;5.00;1.20;;;15.10;99.90;;;;;;5051991;28;20376;-85
2022/06/28 05:01:21;;;;;;;2.90;0.88;;;15.10;99.90;;;;;;5052147;28;20375;-84
2022/06/28 05:03:48;;;;;;;3.63;0.90;;;15.10;99.90;;;;;;5051774;28;20856;-84
2022/06/28 05:06:15;;;;;;;3.43;0.80;;;15.20;99.90;;;;;;5051861;28;20387;-84
2022/06/28 05:08:42;;;;;;;4.75;1.50;;;15.30;99.90;;;;;;5051851;28;20810;-85
2022/06/28 05:11:09;;;;;;;5.70;2.47;;;15.30;99.90;;;;;;5051759;28;20465;-84
2022/06/28 05:13:36;;;;;;;5.20;1.20;;;15.30;99.90;;;;;;5052163;28;20379;-85
2022/06/28 05:16:04;;;;;;;6.03;1.10;;;15.20;99.90;;;;;;5052026;28;20454;-84
2022/06/28 05:18:31;;;;;;;4.55;0.82;;;15.20;99.90;;;;;;5051679;28;20917;-84
2022/06/28 05:20:59;;;;;;;3.53;1.00;;;15.20;99.90;;;;;;5051728;28;20370;-84
2022/06/28 05:23:27;;;;;;;3.88;1.10;;;15.10;99.90;;;;;;5051680;28;20380;-83
2022/06/28 05:25:54;;;;;;;6.45;1.00;;;15.10;99.90;;;;;;5054784;28;20417;-85
2022/06/28 05:28:21;;;;;;;2.80;0.80;;;15.00;99.90;;;;;;5055589;28;20403;-84
2022/06/28 05:30:49;;;;;;;3.83;1.52;;;14.80;99.90;;;;;;5055343;28;20437;-84
2022/06/28 05:33:16;;;;;;;2.30;1.00;;;14.80;99.90;;;;;;5055149;28;20414;-84
2022/06/28 05:35:43;;;;;;;1.50;0.67;;;14.70;99.90;;;;;;5055301;28;20410;-84
2022/06/28 05:38:10;;;;;;;5.88;0.90;;;14.80;99.90;;;;;;5056302;28;20384;-85
2022/06/28 05:40:38;;;;;;;2.78;0.60;;;14.80;99.90;;;;;;5055688;28;20372;-85
2022/06/28 05:43:05;;;;;;;3.88;0.55;;;14.90;99.90;;;;;;5055900;28;20832;-90
2022/06/28 05:45:33;;;;;;;2.42;0.60;;;14.80;99.90;;;;;;5055444;28;20382;-87
2022/06/28 05:48:00;;;;;;;2.63;0.70;;;14.80;99.90;;;;;;5055476;28;20375;-86
2022/06/28 05:50:27;;;;;;;3.78;1.98;;;14.70;99.90;;;;;;5055062;28;20399;-86
2022/06/28 05:52:54;;;;;;;3.78;1.73;;;14.70;99.90;;;;;;5055025;28;20779;-85
2022/06/28 05:55:22;;;;;;;4.80;1.15;;;14.70;99.90;;;;;;5055225;28;20375;-84
2022/06/28 05:57:50;;;;;;;5.55;0.90;;;14.70;99.90;;;;;;5053849;28;20418;-86
2022/06/28 06:00:17;;;;;;;5.20;1.23;;;14.80;99.90;;;;;;5054977;28;20859;-86
2022/06/28 06:02:44;;;;;;;12.35;1.60;;;14.70;99.90;;;;;;5054894;28;20449;-85
2022/06/28 06:05:11;;;;;;;7.70;1.65;;;14.60;99.90;;;;;;5054844;28;20844;-88
2022/06/28 06:07:39;;;;;;;10.50;1.20;;;14.50;99.90;;;;;;5054838;28;20388;-88
2022/06/28 06:10:06;;;;;;;8.68;1.60;;;14.30;99.90;;;;;;5056766;28;20428;-88
2022/06/28 06:12:33;;;;;;;8.50;1.30;;;14.20;99.90;;;;;;5054692;28;20491;-86
2022/06/28 06:15:01;;;;;;;6.13;1.27;;;14.10;99.90;;;;;;5054925;28;20375;-86
2022/06/28 06:17:28;;;;;;;6.93;1.42;;;14.10;99.90;;;;;;5054909;28;20387;-87
2022/06/28 06:19:55;;;;;;;6.88;1.50;;;14.10;99.90;;;;;;5055061;28;20459;-85
2022/06/28 06:22:22;;;;;;;8.25;2.97;;;14.10;99.90;;;;;;5054550;28;20921;-88
2022/06/28 06:24:49;;;;;;;4.63;1.20;;;14.00;99.90;;;;;;5054520;28;20375;-86
2022/06/28 06:27:16;;;;;;;4.93;1.42;;;14.00;99.90;;;;;;5054685;28;20741;-88
2022/06/28 06:29:44;;;;;;;7.68;1.40;;;14.00;99.90;;;;;;5054289;28;20442;-80
2022/06/28 06:32:11;;;;;;;7.28;1.60;;;14.00;99.90;;;;;;5054536;28;20411;-85
2022/06/28 06:34:38;;;;;;;7.13;1.55;;;14.00;99.90;;;;;;5054396;28;20407;-84
2022/06/28 06:37:06;;;;;;;4.50;1.52;;;14.00;99.90;;;;;;5053689;28;20787;-85
2022/06/28 06:39:33;;;;;;;34.92;28.52;;;13.90;99.90;;;;;;5055240;28;20360;-86
2022/06/28 06:42:00;;;;;;;4.90;3.03;;;13.70;99.90;;;;;;5055925;28;20384;-84
2022/06/28 06:44:27;;;;;;;4.55;1.70;;;13.70;99.90;;;;;;5055471;28;20375;-86
2022/06/28 06:46:55;;;;;;;4.53;1.55;;;13.70;99.90;;;;;;5054146;28;20405;-86
2022/06/28 06:49:22;;;;;;;5.88;2.15;;;13.60;99.90;;;;;;5054967;28;20433;-88
2022/06/28 06:51:50;;;;;;;4.17;1.40;;;13.60;99.90;;;;;;5055723;28;20387;-85
2022/06/28 06:54:17;;;;;;;6.20;1.20;;;13.60;99.90;;;;;;5054058;28;20874;-86
2022/06/28 06:56:46;;;;;;;3.80;1.00;;;13.70;99.90;;;;;;5054246;28;20371;-81
2022/06/28 06:59:17;;;;;;;4.07;1.10;;;13.70;99.90;;;;;;5054413;28;20792;-82
2022/06/28 07:01:45;;;;;;;10.15;4.47;;;13.70;99.90;;;;;;5053981;28;20426;-84
2022/06/28 07:04:13;;;;;;;7.43;3.72;;;13.60;99.90;;;;;;5053870;28;20736;-84
2022/06/28 07:06:41;;;;;;;6.38;2.08;;;13.60;99.90;;;;;;5053980;28;20376;-84
2022/06/28 07:09:08;;;;;;;8.18;1.70;;;13.50;99.90;;;;;;5053648;28;20447;-84
2022/06/28 07:11:35;;;;;;;3.00;1.00;;;13.50;99.90;;;;;;5053638;28;20458;-85
2022/06/28 07:14:03;;;;;;;2.97;1.02;;;13.50;99.90;;;;;;5053648;28;20372;-85
2022/06/28 07:16:30;;;;;;;4.30;1.00;;;13.50;99.90;;;;;;5053578;28;20375;-85
2022/06/28 07:18:58;;;;;;;3.10;0.90;;;13.30;99.90;;;;;;5053767;28;20544;-82
2022/06/28 07:21:27;;;;;;;4.53;1.00;;;13.30;99.90;;;;;;5054026;28;20380;-84
2022/06/28 07:23:54;;;;;;;2.75;0.90;;;13.30;99.90;;;;;;5053503;28;20388;-90
2022/06/28 07:26:22;;;;;;;2.60;1.10;;;13.30;99.90;;;;;;5053536;28;20962;-89
2022/06/28 07:28:49;;;;;;;6.77;2.00;;;13.30;99.90;;;;;;5053605;28;20422;-88
2022/06/28 07:31:16;;;;;;;6.22;1.80;;;13.20;99.90;;;;;;5053671;28;20415;-84
2022/06/28 07:33:44;;;;;;;3.67;1.30;;;13.30;99.90;;;;;;5051981;28;20403;-85
2022/06/28 07:36:11;;;;;;;3.00;1.00;;;13.20;99.90;;;;;;5053141;28;20368;-85
2022/06/28 07:38:39;;;;;;;2.83;0.70;;;13.20;99.90;;;;;;5053213;28;20384;-84
2022/06/28 07:41:06;;;;;;;3.50;0.90;;;13.20;99.90;;;;;;5053093;28;20364;-87
2022/06/28 07:43:33;;;;;;;5.35;1.20;;;13.20;99.90;;;;;;5052952;28;20399;-85
2022/06/28 07:46:01;;;;;;;5.65;1.10;;;13.20;99.90;;;;;;5053246;28;20390;-85
2022/06/28 07:48:28;;;;;;;3.28;1.10;;;13.20;99.90;;;;;;5051783;28;20489;-84
2022/06/28 07:53:43;;;;;;;4.60;1.15;;;13.20;99.90;;;;;;5054007;28;20383;-84
2022/06/28 07:56:11;;;;;;;5.05;1.10;;;13.20;99.90;;;;;;5053977;28;20404;-86
2022/06/28 07:58:40;;;;;;;3.45;1.05;;;13.10;99.90;;;;;;5053128;28;20415;-85
2022/06/28 08:01:08;;;;;;;4.15;0.90;;;13.10;99.90;;;;;;5055195;28;20376;-85
2022/06/28 08:03:35;;;;;;;3.03;0.77;;;13.20;99.90;;;;;;5052735;28;20407;-82
2022/06/28 08:06:05;;;;;;;2.83;0.90;;;13.20;99.90;;;;;;5052628;28;20411;-84
2022/06/28 08:08:36;;;;;;;2.20;0.80;;;13.30;99.90;;;;;;5053359;28;20379;-85
2022/06/28 08:11:03;;;;;;;3.43;0.70;;;13.30;99.90;;;;;;5053552;28;20455;-85
2022/06/28 08:13:30;;;;;;;3.70;1.00;;;13.20;99.90;;;;;;5054124;28;20387;-85
2022/06/28 08:15:59;;;;;;;2.92;0.80;;;13.20;99.90;;;;;;5051775;28;20776;-84
2022/06/28 08:18:26;;;;;;;3.40;0.90;;;13.20;99.90;;;;;;5052715;28;20418;-85
2022/06/28 08:20:53;;;;;;;3.53;1.10;;;13.20;99.90;;;;;;5052541;28;20445;-84
2022/06/28 08:23:20;;;;;;;3.40;1.08;;;13.20;99.90;;;;;;5052845;28;20763;-86
2022/06/28 08:25:48;;;;;;;3.97;1.23;;;13.10;99.90;;;;;;5052478;28;20386;-83
2022/06/28 08:28:15;;;;;;;2.70;1.20;;;13.10;99.90;;;;;;5052325;28;20744;-84
2022/06/28 08:30:43;;;;;;;3.90;1.05;;;13.00;99.90;;;;;;5052132;28;20987;-84
2022/06/28 08:33:10;;;;;;;5.35;1.00;;;13.00;99.90;;;;;;5053525;28;20457;-88
2022/06/28 08:35:38;;;;;;;5.57;2.40;;;12.90;99.90;;;;;;5054416;28;20756;-84
2022/06/28 08:38:05;;;;;;;6.45;1.30;;;12.80;99.90;;;;;;5054390;28;20458;-84
2022/06/28 08:40:34;;;;;;;4.13;1.10;;;12.80;99.90;;;;;;5053032;28;20406;-85
2022/06/28 08:43:05;;;;;;;8.15;1.50;;;12.80;99.90;;;;;;5053269;28;20379;-87
2022/06/28 08:45:32;;;;;;;6.68;1.60;;;12.80;99.90;;;;;;5053743;28;20372;-85
2022/06/28 08:48:09;;;;;;;3.50;1.27;;;12.80;99.90;;;;;;5052964;28;20456;-86
2022/06/28 08:50:39;;;;;;;4.07;1.20;;;12.70;99.90;;;;;;5053112;28;20387;-86
2022/06/28 08:53:09;;;;;;;3.65;1.20;;;12.70;99.90;;;;;;5052460;28;20937;-86
2022/06/28 08:55:37;;;;;;;2.70;1.20;;;12.70;99.90;;;;;;5052125;28;20375;-87
2022/06/28 08:58:08;;;;;;;7.50;1.70;;;12.70;99.90;;;;;;5052087;28;20379;-87
2022/06/28 09:00:36;;;;;;;3.03;1.75;;;12.60;99.90;;;;;;5060872;28;20379;-85
2022/06/28 09:03:04;;;;;;;4.22;1.80;;;12.60;99.90;;;;;;5056738;28;20402;-84
2022/06/28 09:05:31;;;;;;;6.13;2.80;;;12.60;99.90;;;;;;5056309;28;20727;-84
2022/06/28 09:07:59;;;;;;;3.35;1.95;;;12.60;99.90;;;;;;5056173;28;20474;-87
2022/06/28 09:10:27;;;;;;;3.85;2.00;;;12.60;99.90;;;;;;5056430;28;20842;-85
2022/06/28 09:13:12;;;;;;;5.78;2.20;;;12.50;99.90;;;;;;5055912;28;20422;-84
2022/06/28 09:15:53;;;;;;;4.72;1.90;;;12.50;99.90;;;;;;5055851;28;20356;-85
2022/06/28 09:18:23;;;;;;;5.90;2.75;;;12.50;99.90;;;;;;5055729;28;20364;-86
2022/06/28 09:20:58;;;;;;;5.47;2.28;;;12.50;99.90;;;;;;5055904;28;20352;-84
2022/06/28 09:23:30;;;;;;;5.78;2.50;;;12.50;99.90;;;;;;5055796;28;20375;-84
2022/06/28 09:26:03;;;;;;;10.45;3.38;;;12.50;99.90;;;;;;5055755;28;20364;-85
2022/06/28 09:28:31;;;;;;;9.50;3.50;;;12.50;99.90;;;;;;5056383;28;20372;-86
2022/06/28 09:31:14;;;;;;;7.00;2.50;;;12.60;99.90;;;;;;5055476;28;20483;-84
2022/06/28 09:33:43;;;;;;;8.48;2.75;;;12.60;99.90;;;;;;5054253;28;20450;-86
2022/06/28 09:36:16;;;;;;;9.73;2.70;;;12.60;99.90;;;;;;5058228;28;20856;-88
2022/06/28 09:38:44;;;;;;;13.15;2.90;;;12.60;99.90;;;;;;5056610;28;20731;-85
2022/06/28 09:41:44;;;;;;;8.82;2.70;;;12.60;99.90;;;;;;5056707;28;20439;-86
2022/06/28 09:44:28;;;;;;;13.13;3.00;;;12.60;99.90;;;;;;5035441;28;20381;-86
2022/06/28 09:47:00;;;;;;;9.23;2.70;;;12.60;99.90;;;;;;5034095;28;20377;-87
2022/06/28 09:49:32;;;;;;;8.63;2.35;;;12.30;99.90;;;;;;5037635;28;20924;-86
2022/06/28 09:52:01;;;;;;;8.57;2.30;;;12.60;99.90;;;;;;5018346;28;20483;-85
2022/06/28 09:54:29;;;;;;;8.65;2.22;;;12.60;99.90;;;;;;5033243;28;20408;-86
2022/06/28 09:56:57;;;;;;;5.00;2.17;;;12.60;99.90;;;;;;5033145;28;20413;-87
2022/06/28 09:59:26;;;;;;;6.15;1.90;;;12.50;99.90;;;;;;5033262;28;20380;-85
2022/06/28 10:01:55;;;;;;;11.30;4.40;;;12.40;99.90;;;;;;5033485;28;20381;-86
2022/06/28 10:04:27;;;;;;;12.40;6.33;;;12.30;99.90;;;;;;5033144;28;20377;-89
2022/06/28 10:06:55;;;;;;;9.15;5.80;;;12.30;99.90;;;;;;5033187;28;20381;-87
2022/06/28 10:09:23;;;;;;;9.75;4.20;;;12.20;99.90;;;;;;5033725;28;20838;-87
2022/06/28 10:17:33;;;;;;;11.88;4.30;;;12.20;99.90;;;;;;5032893;28;20558;-85
2022/06/28 10:20:06;;;;;;;9.25;3.78;;;12.20;99.90;;;;;;5039872;28;20415;-87
2022/06/28 10:22:33;;;;;;;7.55;3.20;;;12.20;99.90;;;;;;5054868;28;20359;-87
2022/06/28 10:25:02;;;;;;;5.68;2.80;;;12.20;99.90;;;;;;5055329;28;20876;-88
2022/06/28 10:27:30;;;;;;;5.70;2.50;;;12.20;99.90;;;;;;5054819;28;20426;-87
2022/06/28 10:30:08;;;;;;;5.38;2.50;;;12.20;99.90;;;;;;5054680;28;20438;-86
2022/06/28 10:32:52;;;;;;;5.40;2.42;;;12.20;99.90;;;;;;5057181;28;20407;-87
2022/06/28 10:35:34;;;;;;;7.75;2.75;;;12.20;99.90;;;;;;5055223;28;20360;-87
2022/06/28 10:38:10;;;;;;;6.63;2.05;;;12.20;99.90;;;;;;5054928;28;20383;-86
2022/06/28 10:40:49;;;;;;;7.38;1.65;;;12.30;99.90;;;;;;5054914;28;20364;-85
2022/06/28 10:43:28;;;;;;;7.75;1.90;;;12.30;99.90;;;;;;5054061;28;20886;-87
2022/06/28 10:46:04;;;;;;;8.60;1.80;;;12.30;99.90;;;;;;5053819;28;20458;-87
2022/06/28 10:48:52;;;;;;;7.32;1.60;;;12.20;99.90;;;;;;5057790;28;20459;-86
2022/06/28 10:51:20;;;;;;;8.93;1.80;;;12.20;99.90;;;;;;5033299;28;20420;-87
2022/06/28 10:54:04;;;;;;;8.15;1.38;;;12.20;99.90;;;;;;5032976;28;20881;-87
2022/06/28 10:56:52;;;;;;;3.75;1.10;;;12.20;99.90;;;;;;5032743;28;20373;-89
2022/06/28 10:59:33;;;;;;;6.60;1.33;;;12.20;99.90;;;;;;5032212;28;20465;-86
2022/06/28 11:02:00;;;;;;;4.90;1.20;;;12.20;99.90;;;;;;5033938;28;20378;-87
2022/06/28 11:04:29;;;;;;;7.57;2.60;;;12.20;99.90;;;;;;5032703;28;20776;-87
2022/06/28 11:07:20;;;;;;;7.07;1.77;;;12.20;99.90;;;;;;5031719;28;20389;-87
2022/06/28 11:10:00;;;;;;;6.45;1.55;;;12.20;99.90;;;;;;5031929;28;20373;-85
2022/06/28 11:12:30;;;;;;;13.18;1.60;;;12.10;99.90;;;;;;5031874;28;20412;-88
2022/06/28 11:15:01;;;;;;;10.15;1.65;;;12.10;99.90;;;;;;5031886;28;20453;-86
2022/06/28 11:17:30;;;;;;;10.00;1.60;;;12.10;99.90;;;;;;5032406;28;20384;-86
2022/06/28 11:20:02;;;;;;;7.57;1.30;;;12.10;99.90;;;;;;5034327;28;20806;-86
2022/06/28 11:22:33;;;;;;;9.85;1.60;;;12.20;99.90;;;;;;5036378;28;20384;-87
2022/06/28 11:25:03;;;;;;;11.68;1.60;;;12.20;99.90;;;;;;5031929;28;20781;-86
2022/06/28 11:27:32;;;;;;;8.18;1.40;;;12.20;99.90;;;;;;5036527;28;20393;-85
2022/06/28 11:30:04;;;;;;;8.35;1.90;;;12.20;99.90;;;;;;5055432;28;20438;-88
2022/06/28 11:32:33;;;;;;;6.97;2.50;;;12.10;99.90;;;;;;5056452;28;20431;-88
2022/06/28 11:35:03;;;;;;;5.50;1.98;;;12.10;99.90;;;;;;5053778;28;20688;-87
2022/06/28 11:37:34;;;;;;;6.97;2.30;;;12.10;99.90;;;;;;5052163;28;20403;-86
2022/06/28 11:40:03;;;;;;;6.85;2.30;;;12.00;99.90;;;;;;5053419;28;20455;-88
2022/06/28 11:42:30;;;;;;;7.70;2.20;;;12.00;99.90;;;;;;5053281;28;20407;-86
2022/06/28 11:44:58;;;;;;;10.40;2.72;;;11.90;99.90;;;;;;5053030;28;20380;-88
2022/06/28 11:47:26;;;;;;;5.72;2.30;;;11.90;99.90;;;;;;5053062;28;20379;-85
2022/06/28 11:50:13;;;;;;;8.63;2.40;;;11.90;99.90;;;;;;5052885;28;20394;-86
2022/06/28 11:52:57;;;;;;;5.80;2.20;;;11.80;99.90;;;;;;5052865;28;20396;-87
2022/06/28 11:58:46;;;;;;;12.15;7.63;;;11.70;99.90;;;;;;5053609;28;20399;-86
2022/06/28 12:01:18;;;;;;;9.73;5.70;;;11.60;99.90;;;;;;5052712;28;20402;-85
2022/06/28 12:03:45;;;;;;;14.05;4.43;;;11.60;99.90;;;;;;5052511;28;20383;-85
2022/06/28 12:06:31;;;;;;;9.63;4.38;;;11.40;99.90;;;;;;5053645;28;20424;-86
2022/06/28 12:08:59;;;;;;;6.93;3.30;;;11.60;99.90;;;;;;5052551;28;20449;-85
2022/06/28 12:11:31;;;;;;;7.38;3.30;;;11.50;99.90;;;;;;5052412;28;20378;-87
2022/06/28 12:14:07;;;;;;;4.97;3.20;;;11.50;99.90;;;;;;5052442;28;20379;-86
2022/06/28 12:16:37;;;;;;;11.18;3.25;;;11.50;99.90;;;;;;5052302;28;20375;-85
2022/06/28 12:19:10;;;;;;;5.50;3.00;;;11.50;99.90;;;;;;5052204;28;20372;-87
2022/06/28 12:21:37;;;;;;;5.95;3.22;;;11.50;99.90;;;;;;5052351;28;20844;-87
2022/06/28 12:24:04;;;;;;;11.35;3.40;;;11.50;99.90;;;;;;5052471;28;20383;-87
2022/06/28 12:26:46;;;;;;;8.77;3.70;;;11.50;99.90;;;;;;5052488;28;20376;-86
2022/06/28 12:29:24;;;;;;;11.82;4.82;;;11.50;99.90;;;;;;5051482;28;20379;-88
2022/06/28 12:31:51;;;;;;;10.55;5.10;;;11.50;99.90;;;;;;5052381;28;20490;-87
2022/06/28 12:34:20;;;;;;;14.35;4.72;;;11.40;99.90;;;;;;5051559;28;20853;-85
2022/06/28 12:36:47;;;;;;;9.97;4.30;;;11.40;99.90;;;;;;5052560;28;20402;-86
2022/06/28 12:39:14;;;;;;;12.55;4.30;;;11.40;99.90;;;;;;5053266;28;20467;-88
2022/06/28 12:41:41;;;;;;;16.10;4.05;;;11.50;99.90;;;;;;5053540;28;20383;-86
2022/06/28 12:44:09;;;;;;;11.90;4.80;;;11.40;99.90;;;;;;5052827;28;20375;-87
2022/06/28 12:46:36;;;;;;;15.95;7.55;;;11.40;99.90;;;;;;5051087;28;20429;-87
2022/06/28 12:49:03;;;;;;;11.70;4.30;;;11.40;99.90;;;;;;5051930;28;20426;-87
2022/06/28 12:51:30;;;;;;;9.02;3.97;;;11.30;99.90;;;;;;5051906;28;20807;-86
2022/06/28 12:54:00;;;;;;;14.70;4.80;;;11.30;99.90;;;;;;5051979;28;20496;-86
2022/06/28 12:56:28;;;;;;;11.52;4.88;;;11.30;99.90;;;;;;5051951;28;20383;-87
2022/06/28 12:58:58;;;;;;;9.90;5.10;;;11.20;99.90;;;;;;5052113;28;20415;-86
2022/06/28 13:01:25;;;;;;;9.30;5.70;;;11.20;99.90;;;;;;5051901;28;20364;-85
2022/06/28 13:03:53;;;;;;;9.98;5.45;;;11.10;99.90;;;;;;5052211;28;20380;-86
2022/06/28 13:06:21;;;;;;;8.55;5.47;;;11.00;99.90;;;;;;5051804;28;20376;-86
2022/06/28 13:08:49;;;;;;;10.98;4.88;;;11.00;99.90;;;;;;5051793;28;20375;-87
2022/06/28 13:11:16;;;;;;;9.27;4.90;;;11.00;99.90;;;;;;5051602;28;20364;-87
2022/06/28 13:13:46;;;;;;;11.38;6.15;;;11.00;99.90;;;;;;5051803;28;20878;-89
2022/06/28 13:16:14;;;;;;;9.32;6.10;;;11.00;99.90;;;;;;5051785;28;20404;-88